createdAt,value
2022-12-28T00:03:35.602Z,78.78
2022-12-28T00:08:37.992Z,78.74
2022-12-28T00:13:45.327Z,78.81
2022-12-28T00:18:47.107Z,78.19
2022-12-28T00:23:51.121Z,77.91
2022-12-28T00:28:56.927Z,77.83
2022-12-28T00:34:05.905Z,78.28
2022-12-28T00:39:08.638Z,78.65
2022-12-28T00:44:10.403Z,78.82
2022-12-28T00:49:12.311Z,79.38
2022-12-28T00:54:14.071Z,79.13
2022-12-28T00:59:15.818Z,79.55
2022-12-28T01:04:17.487Z,79.81
2022-12-28T01:09:19.193Z,80.03
2022-12-28T01:14:21.517Z,80.17
2022-12-28T01:19:23.562Z,80.47
2022-12-28T01:24:25.406Z,80.28
2022-12-28T01:29:27.074Z,80.25
2022-12-28T01:34:30.202Z,80.37
2022-12-28T01:39:31.887Z,80.12
2022-12-28T01:44:42.217Z,80.07
2022-12-28T01:49:56.183Z,80.54
2022-12-28T01:55:07.159Z,80.73
2022-12-28T02:00:12.836Z,80.94
2022-12-28T02:05:15.729Z,81.03
2022-12-28T02:10:41.591Z,80.91
2022-12-28T02:15:44.316Z,80.97
2022-12-28T02:21:05.994Z,80.94
2022-12-28T02:26:42.191Z,81.08
2022-12-28T02:31:46.846Z,81.36
2022-12-28T02:36:59.570Z,81.45
2022-12-28T02:42:03.577Z,81.23
2022-12-28T02:47:33.131Z,81.01
2022-12-28T02:52:51.533Z,81.23
2022-12-28T02:58:23.668Z,81.18
2022-12-28T03:03:41.299Z,81.38
2022-12-28T03:09:00.928Z,81.30
2022-12-28T03:14:08.209Z,81.41
2022-12-28T03:19:30.254Z,81.25
2022-12-28T03:24:55.959Z,81.18
2022-12-28T03:30:27.067Z,81.24
2022-12-28T03:35:56.421Z,81.47
2022-12-28T03:41:07.072Z,81.56
2022-12-28T03:46:16.437Z,81.30
2022-12-28T03:51:22.697Z,81.18
2022-12-28T03:56:27.464Z,81.26
2022-12-28T04:01:32.411Z,81.37
2022-12-28T04:06:34.975Z,81.29
2022-12-28T04:11:37.446Z,81.12
2022-12-28T04:16:39.780Z,81.18
2022-12-28T04:21:41.589Z,80.95
2022-12-28T04:26:43.448Z,80.87
2022-12-28T04:31:45.938Z,80.73
2022-12-28T04:36:49.679Z,80.66
2022-12-28T04:41:53.330Z,80.53
2022-12-28T04:46:55.017Z,80.40
2022-12-28T04:51:57.028Z,80.28
2022-12-28T04:56:58.774Z,80.18
2022-12-28T05:02:00.804Z,80.14
2022-12-28T05:07:02.793Z,80.05
2022-12-28T05:12:05.025Z,79.97
2022-12-28T05:17:06.716Z,79.97
2022-12-28T05:22:12.927Z,80.01
2022-12-28T05:27:15.090Z,79.82
2022-12-28T05:32:16.847Z,79.89
2022-12-28T05:37:22.140Z,79.84
2022-12-28T05:42:24.381Z,79.77
2022-12-28T05:47:26.083Z,79.82
2022-12-28T05:52:28.897Z,79.84
2022-12-28T05:57:30.779Z,79.79
2022-12-28T06:02:32.536Z,79.89
2022-12-28T06:07:34.313Z,79.82
2022-12-28T06:12:36.139Z,79.86
2022-12-28T06:17:38.020Z,79.84
2022-12-28T06:22:39.713Z,79.74
2022-12-28T06:27:41.345Z,79.57
2022-12-28T06:32:43.020Z,79.53
2022-12-28T06:37:47.816Z,79.50
2022-12-28T06:42:49.496Z,79.48
2022-12-28T06:47:52.550Z,79.35
2022-12-28T06:52:54.211Z,79.38
2022-12-28T06:57:56.003Z,79.24
2022-12-28T07:02:57.925Z,79.22
2022-12-28T07:07:59.665Z,79.05
2022-12-28T07:13:09.939Z,78.92
2022-12-28T07:18:11.619Z,78.46
2022-12-28T07:23:13.270Z,78.08
2022-12-28T07:28:14.944Z,77.57
2022-12-28T07:33:16.821Z,77.25
2022-12-28T07:38:21.518Z,76.98
2022-12-28T07:43:23.829Z,76.70
2022-12-28T07:48:25.492Z,76.39
2022-12-28T07:53:27.364Z,76.19
2022-12-28T07:58:29.113Z,76.16
2022-12-28T08:03:30.794Z,75.80
2022-12-28T08:08:38.571Z,75.48
2022-12-28T08:13:41.717Z,75.15
2022-12-28T08:18:43.451Z,74.89
2022-12-28T08:23:45.823Z,74.80
2022-12-28T08:28:49.659Z,74.42
2022-12-28T08:33:53.181Z,74.35
2022-12-28T08:38:55.485Z,74.56
2022-12-28T08:43:58.006Z,74.44
2022-12-28T08:49:00.645Z,74.15
2022-12-28T08:54:03.843Z,73.57
2022-12-28T08:59:06.181Z,73.37
2022-12-28T09:04:16.348Z,73.19
2022-12-28T09:09:19.951Z,73.37
2022-12-28T09:14:24.103Z,73.51
2022-12-28T09:19:26.374Z,72.89
2022-12-28T09:24:28.132Z,72.98
2022-12-28T09:29:29.921Z,73.56
2022-12-28T09:34:36.225Z,73.81
2022-12-28T09:39:38.927Z,73.62
2022-12-28T09:45:06.562Z,73.32
2022-12-28T09:50:29.967Z,73.47
2022-12-28T09:55:39.899Z,73.83
2022-12-28T10:00:45.836Z,73.59
2022-12-28T10:05:48.449Z,73.52
2022-12-28T10:10:51.944Z,72.96
2022-12-28T10:15:54.158Z,72.69
2022-12-28T10:20:56.873Z,72.66
2022-12-28T10:26:01.191Z,72.61
2022-12-28T10:31:07.341Z,72.02
2022-12-28T10:36:14.232Z,70.95
2022-12-28T10:41:18.545Z,70.51
2022-12-28T10:46:23.279Z,69.54
2022-12-28T10:51:31.554Z,68.91
2022-12-28T10:56:44.343Z,67.76
2022-12-28T11:01:46.471Z,66.92
2022-12-28T11:06:53.068Z,66.70
2022-12-28T11:12:11.261Z,65.46
2022-12-28T11:17:21.686Z,63.83
2022-12-28T11:22:28.023Z,63.09
2022-12-28T11:27:29.685Z,60.96
2022-12-28T11:32:37.955Z,59.64
2022-12-28T11:37:56.936Z,59.15
2022-12-28T11:42:58.688Z,59.23
2022-12-28T11:48:39.432Z,59.46
2022-12-28T11:53:44.520Z,58.15
2022-12-28T11:59:01.151Z,58.13
2022-12-28T12:04:05.817Z,58.80
2022-12-28T12:09:29.432Z,59.15
2022-12-28T12:14:53.786Z,59.76
2022-12-28T12:20:03.022Z,60.09
2022-12-28T12:25:18.295Z,60.95
2022-12-28T12:30:22.442Z,61.18
2022-12-28T12:35:35.273Z,61.62
2022-12-28T12:40:45.736Z,61.96
2022-12-28T12:45:47.356Z,61.64
2022-12-28T12:50:52.128Z,61.29
2022-12-28T12:56:24.645Z,61.54
2022-12-28T13:02:00.592Z,61.80
2022-12-28T13:07:05.262Z,61.96
2022-12-28T13:12:14.805Z,61.00
2022-12-28T13:17:22.145Z,60.01
2022-12-28T13:22:32.455Z,60.01
2022-12-28T13:27:36.150Z,60.08
2022-12-28T13:32:39.483Z,60.50
2022-12-28T13:37:41.204Z,61.03
2022-12-28T13:43:03.034Z,61.34
2022-12-28T13:48:05.514Z,60.97
2022-12-28T13:53:21.904Z,61.20
2022-12-28T13:58:29.568Z,60.39
2022-12-28T14:03:37.665Z,60.94
2022-12-28T14:08:41.971Z,60.99
2022-12-28T14:13:44.970Z,61.49
2022-12-28T14:18:47.400Z,62.05
2022-12-28T14:23:49.377Z,62.66
2022-12-28T14:28:54.746Z,63.40
2022-12-28T14:34:00.236Z,64.19
2022-12-28T14:39:04.952Z,65.09
2022-12-28T14:44:16.012Z,65.62
2022-12-28T14:49:28.341Z,65.89
2022-12-28T14:54:30.710Z,66.35
2022-12-28T14:59:39.521Z,66.91
2022-12-28T15:04:41.493Z,67.14
2022-12-28T15:09:43.153Z,67.47
2022-12-28T15:14:45.420Z,67.61
2022-12-28T15:19:47.089Z,67.89
2022-12-28T15:24:49.054Z,68.12
2022-12-28T15:30:06.887Z,68.39
2022-12-28T15:35:10.143Z,68.48
2022-12-28T15:40:11.943Z,68.56
2022-12-28T15:45:15.492Z,68.82
2022-12-28T15:50:18.262Z,68.93
2022-12-28T15:55:19.976Z,68.87
2022-12-28T16:00:21.767Z,68.79
2022-12-28T16:05:23.424Z,68.92
2022-12-28T16:10:25.152Z,68.92
2022-12-28T16:15:28.180Z,68.92
2022-12-28T16:20:29.932Z,68.94
2022-12-28T16:25:31.698Z,69.00
2022-12-28T16:30:48.767Z,68.92
2022-12-28T16:35:54.559Z,68.91
2022-12-28T16:41:00.972Z,68.86
2022-12-28T16:46:07.206Z,68.76
2022-12-28T16:51:09.446Z,68.59
2022-12-28T16:56:11.065Z,68.62
2022-12-28T17:01:13.018Z,68.79
2022-12-28T17:06:16.591Z,68.59
2022-12-28T17:11:19.162Z,68.54
2022-12-28T17:16:20.956Z,68.46
2022-12-28T17:21:23.394Z,68.50
2022-12-28T17:26:25.898Z,68.30
2022-12-28T17:31:28.363Z,68.32
2022-12-28T17:36:30.043Z,68.41
2022-12-28T17:41:33.412Z,68.39
2022-12-28T17:46:40.678Z,68.24
2022-12-28T17:51:43.511Z,68.23
2022-12-28T17:56:45.207Z,68.18
2022-12-28T18:01:47.059Z,68.17
2022-12-28T18:06:48.792Z,68.21
2022-12-28T18:11:50.899Z,68.32
2022-12-28T18:16:54.570Z,68.36
2022-12-28T18:21:56.493Z,68.41
2022-12-28T18:26:58.212Z,68.45
2022-12-28T18:31:59.955Z,68.42
2022-12-28T18:37:01.762Z,68.55
2022-12-28T18:42:04.096Z,68.49
2022-12-28T18:47:06.363Z,68.31
2022-12-28T18:52:08.379Z,68.24
2022-12-28T18:57:10.563Z,68.03
2022-12-28T19:02:18.919Z,68.10
2022-12-28T19:07:21.362Z,68.10
2022-12-28T19:12:23.024Z,68.21
2022-12-28T19:17:24.759Z,68.36
2022-12-28T19:22:26.896Z,68.51
2022-12-28T19:27:28.636Z,68.76
2022-12-28T19:32:30.829Z,68.73
2022-12-28T19:37:34.271Z,69.05
2022-12-28T19:42:36.104Z,69.11
2022-12-28T19:47:37.845Z,69.38
2022-12-28T19:52:39.501Z,69.60
2022-12-28T19:57:41.383Z,69.83
2022-12-28T20:02:43.258Z,69.93
2022-12-28T20:07:45.132Z,70.20
2022-12-28T20:12:51.220Z,70.28
2022-12-28T20:17:53.096Z,70.21
2022-12-28T20:22:54.773Z,70.29
2022-12-28T20:27:56.510Z,70.39
2022-12-28T20:32:58.162Z,70.49
2022-12-28T20:37:59.801Z,70.71
2022-12-28T20:43:20.207Z,70.87
2022-12-28T20:48:22.165Z,70.84
2022-12-28T20:53:24.597Z,70.65
2022-12-28T20:58:27.289Z,70.53
2022-12-28T21:03:29.012Z,70.32
2022-12-28T21:08:31.487Z,70.18
2022-12-28T21:13:33.490Z,70.34
2022-12-28T21:18:36.827Z,70.62
2022-12-28T21:23:38.530Z,70.93
2022-12-28T21:28:40.544Z,71.26
2022-12-28T21:33:42.688Z,71.45
2022-12-28T21:38:46.831Z,71.64
2022-12-28T21:43:48.453Z,71.78
2022-12-28T21:48:50.156Z,71.79
2022-12-28T21:53:52.262Z,71.92
2022-12-28T21:58:55.189Z,71.99
2022-12-28T22:04:15.266Z,72.01
2022-12-28T22:09:39.020Z,72.10
2022-12-28T22:14:41.167Z,72.15
2022-12-28T22:19:43.447Z,72.26
2022-12-28T22:24:45.086Z,72.40
2022-12-28T22:29:46.758Z,72.54
2022-12-28T22:34:48.550Z,72.56
2022-12-28T22:39:50.373Z,72.42
2022-12-28T22:44:52.489Z,71.91
2022-12-28T22:49:54.973Z,71.88
2022-12-28T22:54:56.611Z,72.03
2022-12-28T22:59:58.371Z,72.07
2022-12-28T23:05:00.160Z,71.92
2022-12-28T23:10:02.142Z,71.74
2022-12-28T23:15:19.118Z,71.80
2022-12-28T23:20:39.645Z,72.22
2022-12-28T23:26:00.247Z,72.00
2022-12-28T23:31:02.147Z,72.00
2022-12-28T23:36:04.553Z,72.08
2022-12-28T23:41:25.388Z,72.04
2022-12-28T23:46:27.044Z,71.78
2022-12-28T23:51:28.762Z,71.95
2022-12-28T23:56:30.526Z,72.47
